Time;durP1;ratioP1;P1;durP2;ratioP2;P2;SDS_P1;SDS_P2;PMS_P1;PMS_P2;Temp;Humidity;BMP_temperature;BMP_pressure;BME280_temperature;BME280_humidity;BME280_pressure;Samples;Min_cycle;Max_cycle;Signal;HPM_P1;HPM_P2
2022/01/19 00:01:04;;;;;;;43.92;21.88;;;5.20;99.90;;;;;;5008113;28;20046;-81
2022/01/19 00:03:30;;;;;;;39.95;22.17;;;4.10;99.90;;;;;;5002377;28;20057;-82
2022/01/19 00:05:56;;;;;;;44.92;21.50;;;3.90;99.90;;;;;;5006739;28;20042;-82
2022/01/19 00:08:22;;;;;;;43.08;21.80;;;5.00;99.90;;;;;;5003958;28;20088;-82
2022/01/19 00:10:49;;;;;;;44.83;21.38;;;4.00;99.90;;;;;;5005309;28;20046;-79
2022/01/19 00:13:17;;;;;;;43.03;20.63;;;4.00;99.90;;;;;;5005441;28;20038;-80
2022/01/19 00:15:43;;;;;;;48.80;22.95;;;6.00;99.90;;;;;;5009000;28;20042;-79
2022/01/19 00:18:09;;;;;;;46.05;21.35;;;3.80;99.90;;;;;;5007870;28;20081;-78
2022/01/19 00:20:35;;;;;;;46.65;21.83;;;3.60;99.90;;;;;;5002242;28;20129;-80
2022/01/19 00:23:04;;;;;;;42.78;20.83;;;3.40;99.90;;;;;;5006284;28;20081;-80
2022/01/19 00:25:31;;;;;;;48.97;22.60;;;6.40;99.90;;;;;;5002845;28;20445;-81
2022/01/19 00:27:56;;;;;;;43.33;21.15;;;4.00;99.90;;;;;;5005901;28;20041;-81
2022/01/19 00:30:22;;;;;;;41.50;20.85;;;3.90;99.90;;;;;;4994681;28;20501;-82
2022/01/19 00:32:48;;;;;;;38.10;19.60;;;3.80;99.90;;;;;;4986086;28;20050;-80
2022/01/19 00:35:14;;;;;;;47.25;21.90;;;3.30;99.90;;;;;;5008521;28;20445;-81
2022/01/19 00:37:41;;;;;;;48.88;21.55;;;3.70;99.90;;;;;;5000332;28;20058;-81
2022/01/19 00:40:09;;;;;;;36.15;19.83;;;3.90;99.90;;;;;;5007602;28;20057;-83
2022/01/19 00:42:36;;;;;;;39.78;19.90;;;4.00;99.90;;;;;;5001343;28;20042;-81
2022/01/19 00:45:04;;;;;;;39.05;20.45;;;3.90;99.90;;;;;;5000557;28;20038;-82
2022/01/19 00:47:29;;;;;;;45.33;21.90;;;4.00;99.90;;;;;;5008641;28;20073;-81
2022/01/19 00:49:55;;;;;;;48.03;23.77;;;3.60;99.90;;;;;;5005518;28;20124;-82
2022/01/19 00:52:21;;;;;;;50.08;22.77;;;3.60;99.90;;;;;;5002954;28;20107;-81
2022/01/19 00:54:47;;;;;;;44.40;22.83;;;3.90;99.90;;;;;;4985236;28;20442;-82
2022/01/19 00:57:12;;;;;;;46.95;22.25;;;3.90;99.90;;;;;;5007329;28;20046;-82
2022/01/19 00:59:38;;;;;;;51.53;23.67;;;3.40;99.90;;;;;;5000158;28;20046;-82
2022/01/19 01:02:04;;;;;;;52.55;25.38;;;3.30;99.90;;;;;;5006517;28;20042;-80
2022/01/19 01:04:32;;;;;;;52.25;25.52;;;3.80;99.90;;;;;;5002400;28;20073;-80
2022/01/19 01:06:58;;;;;;;51.13;24.10;;;3.40;99.90;;;;;;5004684;28;20048;-81
2022/01/19 01:09:24;;;;;;;59.72;29.10;;;3.50;99.90;;;;;;4995014;28;20119;-79
2022/01/19 01:12:10;;;;;;;51.42;25.23;;;4.60;99.90;;;;;;5003649;28;20073;-79
2022/01/19 01:20:07;;;;;;;61.22;30.23;;;3.70;99.90;;;;;;5005317;28;20038;-82
2022/01/19 01:22:33;;;;;;;58.30;29.42;;;3.90;99.90;;;;;;5000966;28;20045;-82
2022/01/19 01:25:00;;;;;;;63.33;28.15;;;3.90;99.90;;;;;;5005116;28;20045;-82
2022/01/19 01:27:25;;;;;;;63.22;29.45;;;5.60;99.90;;;;;;4985662;28;20045;-83
2022/01/19 01:29:51;;;;;;;56.72;27.25;;;3.50;99.90;;;;;;5003385;28;20037;-80
2022/01/19 01:32:17;;;;;;;64.85;27.77;;;3.90;99.90;;;;;;5003781;28;20057;-82
2022/01/19 01:34:43;;;;;;;70.70;30.13;;;4.70;99.90;;;;;;4991830;28;20037;-82
2022/01/19 01:37:09;;;;;;;61.40;27.30;;;5.10;99.90;;;;;;5005982;28;20099;-81
2022/01/19 01:39:35;;;;;;;64.20;27.92;;;3.50;99.90;;;;;;4993127;28;20049;-84
2022/01/19 01:42:00;;;;;;;68.70;29.85;;;2.90;99.90;;;;;;5004155;28;20122;-83
2022/01/19 01:44:34;;;;;;;61.20;30.08;;;3.80;99.90;;;;;;5002151;28;20044;-81
2022/01/19 01:47:01;;;;;;;70.00;30.42;;;5.30;99.90;;;;;;4998898;28;20566;-82
2022/01/19 01:49:45;;;;;;;63.80;29.25;;;3.80;99.90;;;;;;5007527;28;20129;-83
2022/01/19 01:54:56;;;;;;;70.25;30.67;;;5.70;99.90;;;;;;5003305;28;20331;-84
2022/01/19 01:57:22;;;;;;;68.82;31.52;;;5.80;99.90;;;;;;5002158;28;20038;-82
2022/01/19 01:59:48;;;;;;;69.63;31.30;;;3.70;99.90;;;;;;4999396;28;20117;-83
2022/01/19 02:02:14;;;;;;;67.35;29.85;;;3.80;99.90;;;;;;5005885;28;20125;-80
2022/01/19 02:04:41;;;;;;;64.28;29.13;;;2.20;99.90;;;;;;5000269;28;20081;-82
2022/01/19 02:07:32;;;;;;;69.40;30.75;;;3.80;99.90;;;;;;5005045;28;20140;-82
2022/01/19 02:10:05;;;;;;;64.22;29.45;;;3.80;99.90;;;;;;5004396;28;20049;-82
2022/01/19 02:23:36;;;;;;;74.75;30.98;;;5.70;99.90;;;;;;4999062;28;20088;-81
2022/01/19 02:26:08;;;;;;;67.22;30.05;;;3.40;99.90;;;;;;5002151;28;20056;-80
2022/01/19 02:36:50;;;;;;;68.70;30.65;;;3.40;99.90;;;;;;5000535;28;20375;-82
2022/01/19 02:42:07;;;;;;;67.03;29.65;;;4.00;99.90;;;;;;5005370;28;20042;-84
2022/01/19 02:49:51;;;;;;;74.63;33.70;;;4.00;99.90;;;;;;5001735;28;20046;-82
2022/01/19 02:52:18;;;;;;;72.20;32.42;;;6.30;99.90;;;;;;5001881;28;20569;-82
2022/01/19 02:54:44;;;;;;;82.50;33.58;;;4.40;99.90;;;;;;4999860;28;20438;-82
2022/01/19 02:57:12;;;;;;;82.03;34.80;;;4.00;99.90;;;;;;5004316;28;20508;-80
2022/01/19 03:10:35;;;;;;;82.57;32.08;;;3.90;99.90;;;;;;4999588;28;20549;-80
2022/01/19 03:13:01;;;;;;;83.65;33.72;;;3.80;99.90;;;;;;5001179;28;20177;-80
2022/01/19 03:15:27;;;;;;;97.28;33.67;;;4.00;99.90;;;;;;5002008;28;20037;-80
2022/01/19 03:17:57;;;;;;;96.88;34.42;;;4.00;99.90;;;;;;4998252;28;20137;-80
2022/01/19 03:20:24;;;;;;;99.18;36.33;;;3.90;99.90;;;;;;5005707;28;20041;-80
2022/01/19 03:23:03;;;;;;;91.82;31.58;;;3.90;99.90;;;;;;5000878;28;20122;-82
2022/01/19 03:25:30;;;;;;;89.18;30.58;;;3.30;99.90;;;;;;5009828;28;20041;-79
2022/01/19 03:27:55;;;;;;;77.15;28.52;;;3.10;99.90;;;;;;5006232;28;20143;-82
2022/01/19 03:30:22;;;;;;;94.15;30.73;;;3.70;99.90;;;;;;5005691;28;20494;-80
2022/01/19 03:32:48;;;;;;;88.70;30.52;;;3.50;99.90;;;;;;4985691;28;20104;-81
2022/01/19 03:35:14;;;;;;;80.00;30.60;;;3.90;99.90;;;;;;5008817;28;20119;-83
2022/01/19 03:37:40;;;;;;;89.13;31.10;;;3.50;99.90;;;;;;5002764;28;20613;-80
2022/01/19 03:40:07;;;;;;;80.60;29.85;;;3.20;99.90;;;;;;5006443;28;20125;-81
2022/01/19 03:42:34;;;;;;;79.88;28.98;;;3.90;99.90;;;;;;5004575;28;20137;-80
2022/01/19 03:44:59;;;;;;;79.57;28.67;;;3.40;99.90;;;;;;5006163;28;20042;-82
2022/01/19 03:47:31;;;;;;;79.40;27.08;;;3.90;99.90;;;;;;5004402;28;20160;-80
2022/01/19 03:49:57;;;;;;;67.20;25.52;;;5.40;99.90;;;;;;5005742;28;20045;-82
2022/01/19 03:52:22;;;;;;;69.00;27.90;;;3.60;99.90;;;;;;5006081;28;20042;-81
2022/01/19 03:54:48;;;;;;;70.68;28.20;;;3.80;99.90;;;;;;5009316;28;20046;-80
2022/01/19 03:57:15;;;;;;;71.15;26.30;;;5.30;99.90;;;;;;5007712;28;20065;-81
2022/01/19 03:59:41;;;;;;;61.80;26.40;;;3.20;99.90;;;;;;4987380;28;20056;-82
2022/01/19 04:02:07;;;;;;;51.20;21.55;;;3.40;99.90;;;;;;5006098;28;20494;-81
2022/01/19 04:04:41;;;;;;;75.85;28.20;;;3.70;99.90;;;;;;5004496;28;20052;-82
2022/01/19 04:09:34;;;;;;;82.35;30.17;;;5.20;99.90;;;;;;5003662;28;20092;-83
2022/01/19 04:12:00;;;;;;;86.13;32.80;;;3.60;99.90;;;;;;5005711;28;20096;-82
2022/01/19 04:14:25;;;;;;;74.10;29.58;;;4.10;99.90;;;;;;5004897;28;20029;-82
2022/01/19 04:17:06;;;;;;;75.20;30.08;;;5.90;99.90;;;;;;5001208;28;20076;-82
2022/01/19 04:19:40;;;;;;;83.95;29.75;;;3.60;99.90;;;;;;5009543;28;20049;-81
2022/01/19 04:22:08;;;;;;;79.10;30.42;;;2.90;99.90;;;;;;5005548;28;20556;-82
2022/01/19 04:24:35;;;;;;;74.20;28.02;;;5.50;99.90;;;;;;5004127;28;20042;-80
2022/01/19 04:29:56;;;;;;;85.78;30.48;;;3.60;99.90;;;;;;5002138;28;20089;-83
2022/01/19 04:32:36;;;;;;;76.57;29.25;;;3.60;99.90;;;;;;5008281;28;20397;-80
2022/01/19 04:35:07;;;;;;;78.53;32.00;;;2.90;99.90;;;;;;4996488;28;20144;-83
2022/01/19 05:04:51;;;;;;;50.53;23.80;;;3.50;99.90;;;;;;5007679;28;20054;-83
2022/01/19 05:07:24;;;;;;;50.75;24.73;;;3.30;99.90;;;;;;5005955;28;20038;-82
2022/01/19 05:15:01;;;;;;;53.05;26.23;;;3.30;99.90;;;;;;5009206;28;20050;-82
2022/01/19 05:17:27;;;;;;;52.28;25.58;;;3.00;99.90;;;;;;5006235;28;20546;-83
2022/01/19 05:19:53;;;;;;;53.05;25.63;;;3.30;99.90;;;;;;4991051;28;20050;-82
2022/01/19 05:22:18;;;;;;;49.55;24.52;;;3.40;99.90;;;;;;5005953;28;20054;-80
2022/01/19 05:24:45;;;;;;;50.33;25.38;;;3.30;99.90;;;;;;5000922;28;20042;-81
2022/01/19 05:27:12;;;;;;;51.22;26.50;;;3.30;99.90;;;;;;4985978;28;20046;-82
2022/01/19 05:29:38;;;;;;;56.00;26.27;;;2.90;99.90;;;;;;5009422;28;20046;-83
2022/01/19 05:32:05;;;;;;;54.28;27.00;;;2.80;99.90;;;;;;4985098;28;20053;-82
2022/01/19 05:34:31;;;;;;;57.05;26.60;;;3.40;99.90;;;;;;4991527;28;20048;-81
2022/01/19 05:36:56;;;;;;;54.78;25.92;;;2.80;99.90;;;;;;5000896;28;20042;-83
2022/01/19 05:39:22;;;;;;;64.93;28.60;;;2.80;99.90;;;;;;5006931;28;20393;-83
2022/01/19 05:41:47;;;;;;;49.15;26.70;;;3.30;99.90;;;;;;5002705;28;20041;-82
2022/01/19 05:44:13;;;;;;;51.67;27.85;;;2.80;99.90;;;;;;5006320;28;20413;-84
2022/01/19 05:46:38;;;;;;;61.13;27.85;;;3.10;99.90;;;;;;5002305;28;20521;-83
2022/01/19 05:49:04;;;;;;;57.83;26.77;;;3.30;99.90;;;;;;5003965;28;20069;-81
2022/01/19 05:51:30;;;;;;;60.38;27.52;;;3.30;99.90;;;;;;5004692;28;20107;-80
2022/01/19 05:53:56;;;;;;;53.05;27.17;;;2.60;99.90;;;;;;5007910;28;20074;-79
2022/01/19 05:56:22;;;;;;;56.42;25.95;;;3.20;99.90;;;;;;5007143;28;20449;-81
2022/01/19 05:58:47;;;;;;;69.80;27.60;;;3.30;99.90;;;;;;5002024;28;20096;-82
2022/01/19 06:01:13;;;;;;;61.25;30.13;;;3.40;99.90;;;;;;5005223;28;20038;-81
2022/01/19 06:03:38;;;;;;;57.13;28.40;;;4.80;99.90;;;;;;5003456;28;20188;-80
2022/01/19 06:06:04;;;;;;;62.20;27.85;;;3.30;99.90;;;;;;5004423;28;20037;-82
2022/01/19 06:08:41;;;;;;;54.20;26.60;;;4.60;99.90;;;;;;5003136;28;20045;-81
2022/01/19 06:11:07;;;;;;;55.38;27.98;;;3.50;99.90;;;;;;5000523;28;20085;-80
2022/01/19 06:13:32;;;;;;;55.03;26.27;;;3.50;99.90;;;;;;4987849;28;20077;-82
2022/01/19 06:15:58;;;;;;;61.72;29.27;;;2.90;99.90;;;;;;5006735;28;20045;-83
2022/01/19 06:18:24;;;;;;;59.00;28.58;;;3.30;99.90;;;;;;5007051;28;20048;-83
2022/01/19 06:20:49;;;;;;;50.00;26.90;;;3.40;99.90;;;;;;5001634;28;20409;-79
2022/01/19 06:23:15;;;;;;;54.92;27.70;;;3.20;99.90;;;;;;5005524;28;20512;-79
2022/01/19 06:25:41;;;;;;;54.45;27.65;;;3.40;99.90;;;;;;5002091;28;20425;-81
2022/01/19 06:28:07;;;;;;;53.67;27.48;;;3.00;99.90;;;;;;5003449;28;20045;-80
2022/01/19 06:30:33;;;;;;;57.50;29.70;;;2.90;99.90;;;;;;5003091;28;20129;-78
2022/01/19 06:32:59;;;;;;;55.53;28.85;;;;;;;;;;5000784;28;20077;-84
2022/01/19 06:35:24;;;;;;;52.85;26.50;;;3.50;99.90;;;;;;4986540;28;20038;-84
2022/01/19 06:37:50;;;;;;;50.40;26.45;;;3.20;99.90;;;;;;5007045;28;20132;-82
2022/01/19 06:40:17;;;;;;;52.90;27.17;;;3.00;99.90;;;;;;4999353;28;20141;-80
2022/01/19 06:42:44;;;;;;;51.20;27.95;;;2.90;99.90;;;;;;4999709;28;20085;-83
2022/01/19 06:45:11;;;;;;;47.38;27.63;;;4.30;99.90;;;;;;5002769;28;20172;-81
2022/01/19 06:47:37;;;;;;;82.75;47.95;;;5.50;99.90;;;;;;5003095;28;20052;-78
2022/01/19 06:50:05;;;;;;;51.45;27.17;;;3.40;99.90;;;;;;5006652;28;20046;-84
2022/01/19 06:52:31;;;;;;;54.40;27.85;;;3.40;99.90;;;;;;5000198;28;20069;-79
2022/01/19 06:54:57;;;;;;;52.03;28.15;;;2.90;99.90;;;;;;5008233;28;20042;-84
2022/01/19 06:57:22;;;;;;;53.10;27.27;;;3.40;99.90;;;;;;5004281;28;20548;-83
2022/01/19 06:59:51;;;;;;;57.47;28.40;;;2.60;99.90;;;;;;5002004;28;20042;-83
2022/01/19 07:02:17;;;;;;;53.42;28.17;;;3.10;99.90;;;;;;5004942;28;20134;-79
2022/01/19 07:04:48;;;;;;;53.50;27.45;;;3.30;99.90;;;;;;5001757;28;20486;-82
2022/01/19 07:07:14;;;;;;;48.28;27.20;;;2.90;99.90;;;;;;5004023;28;20038;-83
2022/01/19 07:09:40;;;;;;;50.03;26.10;;;2.90;99.90;;;;;;4991502;28;20097;-78
2022/01/19 07:12:06;;;;;;;90.13;53.50;;;3.10;99.90;;;;;;5006742;28;20101;-82
2022/01/19 07:14:31;;;;;;;44.17;26.48;;;3.50;99.90;;;;;;5006136;28;20038;-84
2022/01/19 07:16:57;;;;;;;48.83;25.35;;;3.00;99.90;;;;;;4999588;28;20498;-83
2022/01/19 07:19:23;;;;;;;46.95;26.67;;;4.00;99.90;;;;;;4984796;28;20148;-79
2022/01/19 07:21:49;;;;;;;47.65;25.95;;;3.20;99.90;;;;;;5007749;28;20053;-84
2022/01/19 07:24:14;;;;;;;44.55;26.88;;;2.80;99.90;;;;;;5004053;28;20512;-83
2022/01/19 07:26:40;;;;;;;53.80;27.98;;;3.00;99.90;;;;;;5001591;28;20045;-80
2022/01/19 07:29:06;;;;;;;49.72;26.05;;;2.80;99.90;;;;;;5002335;28;20034;-83
2022/01/19 07:31:31;;;;;;;47.78;27.30;;;2.60;99.90;;;;;;5001956;28;20120;-82
2022/01/19 07:33:57;;;;;;;54.17;28.63;;;2.90;99.90;;;;;;5017691;28;20051;-79
2022/01/19 07:36:23;;;;;;;56.10;29.75;;;2.90;99.90;;;;;;5004607;28;20482;-81
2022/01/19 07:38:48;;;;;;;55.33;27.17;;;3.00;99.90;;;;;;5006542;28;20038;-82
2022/01/19 07:41:14;;;;;;;50.67;28.60;;;3.40;99.90;;;;;;5004901;28;20045;-84
2022/01/19 07:43:39;;;;;;;47.97;27.27;;;2.80;99.90;;;;;;5002218;28;20074;-79
2022/01/19 07:46:05;;;;;;;44.70;26.30;;;3.40;99.90;;;;;;5021479;28;20449;-84
2022/01/19 07:48:31;;;;;;;57.78;29.08;;;2.60;99.90;;;;;;5005439;28;20080;-78
2022/01/19 07:51:00;;;;;;;52.90;28.58;;;2.90;99.90;;;;;;5016142;28;20041;-79
2022/01/19 07:53:25;;;;;;;50.13;28.08;;;3.40;99.90;;;;;;5004436;28;20132;-83
2022/01/19 07:55:51;;;;;;;50.83;27.40;;;2.80;99.90;;;;;;5000800;28;20038;-83
2022/01/19 07:58:17;;;;;;;51.05;26.52;;;3.40;99.90;;;;;;5004196;28;20034;-84
2022/01/19 08:00:42;;;;;;;48.17;27.85;;;3.50;99.90;;;;;;5001249;28;20080;-83
2022/01/19 08:03:09;;;;;;;47.05;28.05;;;3.50;99.90;;;;;;5002445;28;20478;-84
2022/01/19 08:05:35;;;;;;;50.72;28.63;;;3.40;99.90;;;;;;5002562;28;20429;-84
2022/01/19 08:08:02;;;;;;;54.55;29.58;;;3.50;99.90;;;;;;4997753;28;20046;-84
2022/01/19 08:10:31;;;;;;;56.72;29.75;;;2.80;99.90;;;;;;5024867;28;20113;-84
2022/01/19 08:13:01;;;;;;;58.20;29.35;;;3.10;99.90;;;;;;5003994;28;20042;-80
2022/01/19 08:15:27;;;;;;;59.17;30.17;;;3.40;99.90;;;;;;5007397;28;20050;-84
2022/01/19 08:17:53;;;;;;;57.08;28.77;;;3.00;99.90;;;;;;5003903;28;20444;-83
2022/01/19 08:20:19;;;;;;;57.45;33.38;;;3.20;99.90;;;;;;5007573;28;20030;-79
2022/01/19 08:22:48;;;;;;;59.83;31.38;;;3.60;99.90;;;;;;5004357;28;20046;-84
2022/01/19 08:25:14;;;;;;;58.92;30.50;;;2.90;99.90;;;;;;5006493;28;20045;-84
2022/01/19 08:27:43;;;;;;;54.40;28.70;;;3.60;99.90;;;;;;5005635;28;20045;-84
2022/01/19 08:30:10;;;;;;;56.72;30.77;;;3.10;99.90;;;;;;5001508;28;20532;-84
2022/01/19 08:32:36;;;;;;;64.18;32.00;;;3.80;99.90;;;;;;5008827;28;20042;-79
2022/01/19 08:35:07;;;;;;;62.35;31.15;;;3.40;99.90;;;;;;5002353;28;20056;-83
2022/01/19 08:37:33;;;;;;;58.25;31.02;;;3.70;99.90;;;;;;5008083;28;20045;-83
2022/01/19 08:39:59;;;;;;;57.20;30.00;;;3.40;99.90;;;;;;5003183;28;20470;-83
2022/01/19 08:42:26;;;;;;;106.50;59.03;;;3.50;99.90;;;;;;5005332;28;20050;-83
2022/01/19 08:44:53;;;;;;;65.82;34.92;;;3.20;99.90;;;;;;5004412;28;20048;-83
2022/01/19 08:47:19;;;;;;;67.35;31.45;;;3.30;99.90;;;;;;4986811;28;20117;-84
2022/01/19 08:49:44;;;;;;;57.70;30.70;;;4.10;99.90;;;;;;5025677;28;20128;-83
2022/01/19 08:52:10;;;;;;;58.35;31.63;;;3.70;99.90;;;;;;5001385;28;20073;-84
2022/01/19 08:54:36;;;;;;;58.53;32.05;;;3.70;99.90;;;;;;4992523;28;20078;-83
2022/01/19 08:57:04;;;;;;;61.72;31.42;;;3.20;99.90;;;;;;5003269;28;20046;-79
2022/01/19 08:59:31;;;;;;;67.90;33.25;;;3.90;99.90;;;;;;4997236;28;20129;-80
2022/01/19 09:01:57;;;;;;;65.53;32.65;;;3.30;99.90;;;;;;5003980;28;20367;-79
2022/01/19 09:04:24;;;;;;;59.88;31.98;;;3.30;99.90;;;;;;5005552;28;20033;-79
2022/01/19 09:06:49;;;;;;;52.97;26.73;;;3.00;99.90;;;;;;5003974;28;20063;-79
2022/01/19 09:09:15;;;;;;;61.47;33.28;;;3.60;99.90;;;;;;5004816;28;20034;-79
2022/01/19 09:11:45;;;;;;;67.10;34.70;;;3.40;99.90;;;;;;5003482;28;20085;-81
2022/01/19 09:14:11;;;;;;;63.10;33.03;;;3.40;99.90;;;;;;4996168;28;20505;-79
2022/01/19 09:16:37;;;;;;;57.50;33.17;;;5.30;99.90;;;;;;5005965;28;20069;-83
2022/01/19 09:19:05;;;;;;;63.97;34.65;;;3.70;99.90;;;;;;5007953;28;20046;-83
2022/01/19 09:21:31;;;;;;;57.88;32.60;;;3.90;99.90;;;;;;5007027;28;20049;-82
2022/01/19 09:23:57;;;;;;;63.42;32.70;;;3.50;99.90;;;;;;5003969;28;20165;-78
2022/01/19 09:26:22;;;;;;;64.72;34.78;;;3.50;99.90;;;;;;4988972;28;20504;-82
2022/01/19 09:28:48;;;;;;;61.03;33.70;;;3.50;99.90;;;;;;4996036;28;20049;-83
2022/01/19 09:31:18;;;;;;;65.60;33.33;;;3.70;99.90;;;;;;5003417;28;20054;-82
2022/01/19 09:33:55;;;;;;;62.38;33.65;;;;;;;;;;5004323;28;20080;-83
2022/01/19 09:36:35;;;;;;;58.85;32.20;;;4.20;99.90;;;;;;5000451;28;20054;-78
2022/01/19 09:39:05;;;;;;;55.13;31.67;;;3.80;99.90;;;;;;5007878;28;20042;-79
2022/01/19 09:41:32;;;;;;;63.42;32.92;;;4.10;99.90;;;;;;5006066;28;20073;-82
2022/01/19 09:43:58;;;;;;;62.17;33.13;;;4.30;99.90;;;;;;5003615;28;20050;-84
2022/01/19 09:46:23;;;;;;;65.53;34.20;;;4.10;99.90;;;;;;5004700;28;20048;-81
2022/01/19 09:48:49;;;;;;;57.47;31.67;;;2.60;99.90;;;;;;5003952;28;20046;-78
2022/01/19 09:51:15;;;;;;;56.60;32.78;;;4.20;99.90;;;;;;5000482;28;20042;-83
2022/01/19 09:53:42;;;;;;;60.80;32.97;;;4.20;99.90;;;;;;5006830;28;20042;-78
2022/01/19 09:56:08;;;;;;;63.38;32.75;;;4.20;99.90;;;;;;4993355;28;20042;-80
2022/01/19 09:58:34;;;;;;;67.47;34.50;;;4.20;99.90;;;;;;5005617;28;20045;-79
2022/01/19 10:00:59;;;;;;;58.92;33.95;;;3.70;99.90;;;;;;5002221;28;20076;-80
2022/01/19 10:03:31;;;;;;;62.38;33.88;;;6.60;99.90;;;;;;5004437;28;20456;-81
2022/01/19 10:06:12;;;;;;;67.60;34.42;;;4.30;99.90;;;;;;5003153;28;20436;-78
2022/01/19 10:08:45;;;;;;;62.65;31.42;;;4.30;99.90;;;;;;4999796;28;20050;-79
2022/01/19 10:11:21;;;;;;;64.60;33.55;;;4.10;99.90;;;;;;4993254;28;20082;-82
2022/01/19 10:17:00;;;;;;;61.97;33.55;;;3.90;99.90;;;;;;5006394;28;20050;-79
2022/01/19 10:19:50;;;;;;;64.28;33.22;;;5.60;99.90;;;;;;5008698;28;20053;-78
2022/01/19 10:22:25;;;;;;;60.00;34.28;;;4.30;99.90;;;;;;5002374;28;20409;-80
2022/01/19 10:25:01;;;;;;;60.80;34.38;;;4.30;99.90;;;;;;4993567;28;20045;-83
2022/01/19 10:27:40;;;;;;;65.80;34.90;;;4.30;99.90;;;;;;5004337;28;20039;-82
2022/01/19 10:30:05;;;;;;;59.70;34.33;;;4.30;99.90;;;;;;5008096;28;20054;-79
2022/01/19 10:32:36;;;;;;;57.42;32.42;;;3.70;99.90;;;;;;4984311;28;20066;-82
2022/01/19 10:35:28;;;;;;;80.53;41.25;;;4.40;99.90;;;;;;5008520;28;20046;-82
2022/01/19 10:38:16;;;;;;;61.97;30.88;;;4.30;99.90;;;;;;4988301;28;20061;-83
2022/01/19 10:41:06;;;;;;;65.38;34.95;;;4.30;99.90;;;;;;4982258;28;20050;-79
2022/01/19 10:43:41;;;;;;;64.53;36.05;;;4.30;99.90;;;;;;4988745;28;20056;-81
2022/01/19 10:46:16;;;;;;;58.05;33.58;;;4.10;99.90;;;;;;5001193;28;20049;-80
2022/01/19 10:48:42;;;;;;;58.92;35.55;;;4.20;99.90;;;;;;4984980;28;20528;-80
2022/01/19 10:51:12;;;;;;;66.95;35.40;;;3.80;99.90;;;;;;5007759;28;20620;-78
2022/01/19 10:53:41;;;;;;;49.25;31.42;;;4.30;99.90;;;;;;4985741;28;20082;-82
2022/01/19 10:56:21;;;;;;;62.55;33.85;;;4.00;99.90;;;;;;5023335;28;20104;-81
2022/01/19 10:58:58;;;;;;;65.15;36.05;;;4.30;99.90;;;;;;5006278;28;20038;-83
2022/01/19 11:01:38;;;;;;;62.78;35.63;;;4.40;99.90;;;;;;5005127;28;20042;-81
2022/01/19 11:04:28;;;;;;;70.72;34.90;;;4.50;99.90;;;;;;5008043;28;20474;-81
2022/01/19 11:07:04;;;;;;;60.15;34.10;;;4.50;99.90;;;;;;5006678;28;20049;-82
2022/01/19 11:09:34;;;;;;;65.05;35.45;;;4.10;99.90;;;;;;4994676;28;20048;-78
2022/01/19 11:12:07;;;;;;;67.32;35.65;;;3.80;99.90;;;;;;5003408;28;20057;-83
2022/01/19 11:14:35;;;;;;;70.32;37.00;;;4.50;99.90;;;;;;5004132;28;20034;-81
2022/01/19 11:17:02;;;;;;;58.95;35.63;;;4.20;99.90;;;;;;5001447;28;20058;-82
2022/01/19 11:19:28;;;;;;;60.33;36.70;;;4.60;99.90;;;;;;5002933;28;20037;-82
2022/01/19 11:22:12;;;;;;;70.03;37.70;;;4.20;99.90;;;;;;5002004;28;20046;-79
2022/01/19 11:25:06;;;;;;;67.68;36.33;;;4.70;99.90;;;;;;5004962;28;20409;-79
2022/01/19 11:27:37;;;;;;;69.70;38.45;;;4.70;99.90;;;;;;4999151;28;20140;-81
2022/01/19 11:30:25;;;;;;;62.17;37.33;;;4.00;99.90;;;;;;5003857;28;20058;-79
2022/01/19 11:33:23;;;;;;;69.55;39.45;;;4.70;99.90;;;;;;5004124;28;20133;-82
2022/01/19 11:35:51;;;;;;;71.80;38.33;;;4.70;99.90;;;;;;5005634;28;20050;-82
2022/01/19 11:38:45;;;;;;;65.57;34.28;;;4.20;99.90;;;;;;4999316;28;20635;-78
2022/01/19 11:41:10;;;;;;;70.95;38.65;;;4.80;99.90;;;;;;5007328;28;20076;-78
2022/01/19 11:43:39;;;;;;;64.57;37.63;;;4.20;99.90;;;;;;4985657;28;20046;-81
2022/01/19 11:46:24;;;;;;;62.88;36.55;;;4.30;99.90;;;;;;5011224;28;20052;-81
2022/01/19 11:48:50;;;;;;;64.72;36.60;;;4.80;99.90;;;;;;5009408;28;20054;-79
2022/01/19 11:51:36;;;;;;;69.78;36.97;;;4.50;99.90;;;;;;5004615;28;20057;-79
2022/01/19 11:54:15;;;;;;;71.00;39.25;;;6.10;99.90;;;;;;5011679;28;20042;-82
2022/01/19 11:56:59;;;;;;;77.25;40.05;;;4.50;99.90;;;;;;5002781;28;20065;-78
2022/01/19 11:59:30;;;;;;;67.70;38.50;;;4.90;99.90;;;;;;5011117;28;20112;-83
2022/01/19 12:02:21;;;;;;;65.53;38.85;;;4.90;99.90;;;;;;5009971;28;20128;-79
2022/01/19 12:05:20;;;;;;;70.25;38.65;;;5.00;99.90;;;;;;5002677;28;20054;-79
2022/01/19 12:07:52;;;;;;;62.67;36.25;;;5.00;99.90;;;;;;4991222;28;20089;-83
2022/01/19 12:10:23;;;;;;;63.38;37.38;;;4.90;99.90;;;;;;5006265;28;20487;-83
2022/01/19 12:16:09;;;;;;;64.60;36.03;;;5.00;99.90;;;;;;5000868;28;20089;-83
2022/01/19 12:18:51;;;;;;;68.32;36.90;;;6.20;99.90;;;;;;5001745;28;20483;-79
2022/01/19 12:21:48;;;;;;;69.95;36.05;;;5.00;99.90;;;;;;5010254;28;20057;-83
2022/01/19 12:24:24;;;;;;;67.32;37.88;;;5.00;99.90;;;;;;4993214;28;20108;-78
2022/01/19 12:27:07;;;;;;;65.28;36.67;;;5.00;99.90;;;;;;5004673;28;20476;-78
2022/01/19 12:29:33;;;;;;;73.78;38.42;;;5.00;99.90;;;;;;5002343;28;20550;-78
2022/01/19 12:32:06;;;;;;;66.72;36.60;;;4.80;99.90;;;;;;4989387;28;20141;-84
2022/01/19 12:34:48;;;;;;;63.40;36.47;;;5.00;99.90;;;;;;5009551;28;20042;-81
2022/01/19 12:37:36;;;;;;;63.60;36.80;;;4.90;99.90;;;;;;5006615;28;20425;-78
2022/01/19 12:40:35;;;;;;;63.00;35.25;;;3.10;99.90;;;;;;4992700;28;20050;-78
2022/01/19 12:43:05;;;;;;;67.47;35.63;;;4.90;99.90;;;;;;5004491;28;20050;-79
2022/01/19 12:45:43;;;;;;;62.88;33.78;;;7.00;99.90;;;;;;5005611;28;20037;-83
2022/01/19 12:48:09;;;;;;;67.72;37.30;;;4.90;99.90;;;;;;4996104;28;20046;-83
2022/01/19 12:50:39;;;;;;;65.72;35.63;;;4.90;99.90;;;;;;5002262;28;20112;-77
2022/01/19 12:53:14;;;;;;;68.07;36.80;;;4.90;99.90;;;;;;5009232;28;20044;-78
2022/01/19 12:55:43;;;;;;;68.10;37.38;;;4.90;99.90;;;;;;5008108;28;20054;-83
2022/01/19 12:58:36;;;;;;;73.97;37.45;;;4.90;99.90;;;;;;5009029;28;20060;-81
2022/01/19 13:01:09;;;;;;;66.25;34.80;;;4.70;99.90;;;;;;4987665;28;20054;-78
2022/01/19 13:03:44;;;;;;;67.22;36.53;;;4.30;99.90;;;;;;5009633;28;20498;-79
2022/01/19 13:06:15;;;;;;;57.58;30.33;;;4.40;99.90;;;;;;5009601;28;20049;-82
2022/01/19 13:08:59;;;;;;;56.28;32.70;;;4.70;99.90;;;;;;5004996;28;20104;-77
2022/01/19 13:11:40;;;;;;;56.63;33.47;;;4.90;99.90;;;;;;5002038;28;20049;-83
2022/01/19 13:14:09;;;;;;;67.68;35.20;;;4.60;99.90;;;;;;5009191;28;20044;-78
2022/01/19 13:16:38;;;;;;;62.10;33.75;;;5.00;99.90;;;;;;5000924;28;20039;-78
2022/01/19 13:19:10;;;;;;;55.95;31.00;;;5.00;99.90;;;;;;5007563;28;20042;-80
2022/01/19 13:21:37;;;;;;;55.47;33.20;;;4.40;99.90;;;;;;5001032;28;20049;-83
2022/01/19 13:24:18;;;;;;;61.90;34.13;;;5.00;99.90;;;;;;5008091;28;20042;-84
2022/01/19 13:26:58;;;;;;;63.88;35.22;;;5.10;99.90;;;;;;5008690;28;20034;-81
2022/01/19 13:29:28;;;;;;;63.58;31.95;;;4.50;99.90;;;;;;5008989;28;20076;-82
2022/01/19 13:31:53;;;;;;;55.85;28.00;;;4.70;99.90;;;;;;4986677;28;20410;-83
2022/01/19 13:34:19;;;;;;;66.40;33.42;;;4.70;99.90;;;;;;5008894;28;20050;-81
2022/01/19 13:36:53;;;;;;;57.03;32.22;;;4.20;99.90;;;;;;5000490;28;20038;-83
2022/01/19 13:39:21;;;;;;;55.70;31.90;;;4.40;99.90;;;;;;5001235;28;20080;-83
2022/01/19 13:41:50;;;;;;;65.95;32.55;;;4.80;99.90;;;;;;5004590;28;20053;-82
2022/01/19 13:44:22;;;;;;;49.47;26.13;;;4.80;99.90;;;;;;5003500;28;20121;-83
2022/01/19 13:46:47;;;;;;;54.10;30.42;;;4.90;99.90;;;;;;5000543;28;20039;-84
2022/01/19 13:49:13;;;;;;;49.17;28.23;;;5.10;99.90;;;;;;5000696;28;20390;-83
2022/01/19 13:51:43;;;;;;;61.70;32.20;;;6.60;99.90;;;;;;5003126;28;20041;-83
2022/01/19 13:54:08;;;;;;;49.65;28.85;;;6.70;99.90;;;;;;5004180;28;20030;-81
2022/01/19 13:56:38;;;;;;;60.25;31.35;;;5.00;99.90;;;;;;4994315;28;20129;-78
2022/01/19 13:59:09;;;;;;;58.97;31.30;;;7.00;99.90;;;;;;5005630;28;20034;-83
2022/01/19 14:01:52;;;;;;;51.95;25.27;;;4.50;99.90;;;;;;5008345;28;20050;-80
2022/01/19 14:04:18;;;;;;;52.35;27.52;;;5.10;99.90;;;;;;5008060;28;20042;-79
2022/01/19 14:06:48;;;;;;;54.47;30.25;;;5.00;99.90;;;;;;5003708;28;20041;-83
2022/01/19 14:09:30;;;;;;;42.78;23.20;;;5.10;99.90;;;;;;5004077;28;20482;-83
2022/01/19 14:12:10;;;;;;;49.92;22.58;;;4.80;99.90;;;;;;5005121;28;20034;-83
2022/01/19 14:14:41;;;;;;;49.40;24.58;;;5.10;99.90;;;;;;5001142;28;20501;-82
2022/01/19 14:17:13;;;;;;;53.20;25.45;;;5.10;99.90;;;;;;4986630;28;20042;-82
2022/01/19 14:19:44;;;;;;;45.50;23.83;;;4.80;99.90;;;;;;5024250;28;20050;-82
2022/01/19 14:22:19;;;;;;;45.70;23.38;;;4.70;99.90;;;;;;5007406;28;20067;-83